createdAt,value
2022-12-05T00:01:26.813Z,21.43
2022-12-05T00:03:56.448Z,22.15
2022-12-05T00:06:24.761Z,22.33
2022-12-05T00:08:51.522Z,21.80
2022-12-05T00:11:27.366Z,24.23
2022-12-05T00:13:56.806Z,23.47
2022-12-05T00:16:25.566Z,23.55
2022-12-05T00:18:53.873Z,20.80
2022-12-05T00:21:24.392Z,24.55
2022-12-05T00:23:52.936Z,22.77
2022-12-05T00:26:20.296Z,21.63
2022-12-05T00:28:48.109Z,23.58
2022-12-05T00:31:20.087Z,21.50
2022-12-05T00:33:47.761Z,21.98
2022-12-05T00:36:25.872Z,22.92
2022-12-05T00:38:53.358Z,20.53
2022-12-05T00:41:23.345Z,22.62
2022-12-05T00:43:50.485Z,21.65
2022-12-05T00:46:20.437Z,19.33
2022-12-05T00:48:47.778Z,19.40
2022-12-05T00:51:17.978Z,20.07
2022-12-05T00:53:45.443Z,21.48
2022-12-05T00:56:15.170Z,19.42
2022-12-05T00:58:42.919Z,17.67
2022-12-05T01:01:27.414Z,17.65
2022-12-05T01:03:56.777Z,18.07
2022-12-05T01:06:25.377Z,18.70
2022-12-05T01:08:54.926Z,18.23
2022-12-05T01:11:23.256Z,17.08
2022-12-05T01:13:50.884Z,18.23
2022-12-05T01:16:21.071Z,18.47
2022-12-05T01:18:48.080Z,18.02
2022-12-05T01:21:15.275Z,15.05
2022-12-05T01:23:42.083Z,15.15
2022-12-05T01:26:12.777Z,14.68
2022-12-05T01:28:40.266Z,14.93
2022-12-05T01:31:19.145Z,18.40
2022-12-05T01:33:46.019Z,14.27
2022-12-05T01:36:12.936Z,14.35
2022-12-05T01:38:41.236Z,15.73
2022-12-05T01:41:11.439Z,14.03
2022-12-05T01:44:03.124Z,13.95
2022-12-05T01:46:35.833Z,11.50
2022-12-05T01:49:14.357Z,11.73
2022-12-05T01:51:46.064Z,9.68
2022-12-05T01:54:15.076Z,12.90
2022-12-05T01:56:46.088Z,12.43
2022-12-05T01:59:14.200Z,11.50
2022-12-05T02:01:41.585Z,11.80
2022-12-05T02:04:09.554Z,11.10
2022-12-05T02:06:36.668Z,10.87
2022-12-05T02:09:03.996Z,12.52
2022-12-05T02:11:34.165Z,11.12
2022-12-05T02:14:04.029Z,9.63
2022-12-05T02:17:09.379Z,11.40
2022-12-05T02:19:42.322Z,12.50
2022-12-05T02:22:40.221Z,9.30
2022-12-05T02:25:45.562Z,11.18
2022-12-05T02:28:31.141Z,14.30
2022-12-05T02:31:01.752Z,11.88
2022-12-05T02:33:37.245Z,17.13
2022-12-05T02:36:17.986Z,12.95
2022-12-05T02:39:00.552Z,14.65
2022-12-05T02:41:31.000Z,14.20
2022-12-05T02:44:11.117Z,14.63
2022-12-05T02:46:40.910Z,12.73
2022-12-05T02:49:11.919Z,15.63
2022-12-05T02:51:44.260Z,14.68
2022-12-05T02:54:16.441Z,16.35
2022-12-05T02:56:46.206Z,15.38
2022-12-05T02:59:16.127Z,17.00
2022-12-05T03:01:47.520Z,12.82
2022-12-05T03:04:15.342Z,13.88
2022-12-05T03:07:12.127Z,14.43
2022-12-05T03:09:47.913Z,14.48
2022-12-05T03:12:20.418Z,13.47
2022-12-05T03:15:03.397Z,13.45
2022-12-05T03:17:37.645Z,12.93
2022-12-05T03:20:09.339Z,13.25
2022-12-05T03:22:40.600Z,11.27
2022-12-05T03:25:09.053Z,11.63
2022-12-05T03:27:53.285Z,13.00
2022-12-05T03:30:23.286Z,12.80
2022-12-05T03:33:15.185Z,12.13
2022-12-05T03:36:03.467Z,10.52
2022-12-05T03:39:13.588Z,10.37
2022-12-05T03:41:56.686Z,9.23
2022-12-05T03:44:31.353Z,10.38
2022-12-05T03:47:06.950Z,10.90
2022-12-05T03:49:56.145Z,10.95
2022-12-05T03:52:30.027Z,9.70
2022-12-05T03:55:01.916Z,10.82
2022-12-05T03:57:37.186Z,11.07
2022-12-05T04:00:10.563Z,11.55
2022-12-05T04:02:52.514Z,11.80
2022-12-05T04:05:27.843Z,11.37
2022-12-05T04:08:04.932Z,11.63
2022-12-05T04:10:48.600Z,12.02
2022-12-05T04:13:22.218Z,12.50
2022-12-05T04:16:14.310Z,10.35
2022-12-05T04:18:47.527Z,13.97
2022-12-05T04:21:35.211Z,12.25
2022-12-05T04:24:20.649Z,13.05
2022-12-05T04:26:54.215Z,9.90
2022-12-05T04:29:35.001Z,10.10
2022-12-05T04:32:07.880Z,12.83
2022-12-05T04:34:37.214Z,11.60
2022-12-05T04:37:13.157Z,11.27
2022-12-05T04:39:48.548Z,13.07
2022-12-05T04:42:20.465Z,12.25
2022-12-05T04:44:52.977Z,10.67
2022-12-05T04:47:24.688Z,12.45
2022-12-05T04:49:54.574Z,12.15
2022-12-05T04:52:22.474Z,10.48
2022-12-05T04:55:02.349Z,12.02
2022-12-05T04:57:55.717Z,11.90
2022-12-05T05:00:22.568Z,12.98
2022-12-05T05:03:04.219Z,11.98
2022-12-05T05:05:32.901Z,11.18
2022-12-05T05:07:59.862Z,12.30
2022-12-05T05:10:37.857Z,13.80
2022-12-05T05:13:04.746Z,16.15
2022-12-05T05:15:31.459Z,14.75
2022-12-05T05:17:58.447Z,14.55
2022-12-05T05:20:27.231Z,14.27
2022-12-05T05:22:56.311Z,15.27
2022-12-05T05:25:24.220Z,15.10
2022-12-05T05:27:52.663Z,16.90
2022-12-05T05:30:21.894Z,13.57
2022-12-05T05:32:48.914Z,14.27
2022-12-05T05:35:16.111Z,18.27
2022-12-05T05:37:43.814Z,14.85
2022-12-05T05:40:13.099Z,15.30
2022-12-05T05:42:48.658Z,14.27
2022-12-05T05:45:16.577Z,14.15
2022-12-05T05:47:44.311Z,13.43
2022-12-05T05:50:15.130Z,17.55
2022-12-05T05:52:46.336Z,14.85
2022-12-05T05:55:13.202Z,12.37
2022-12-05T05:57:39.919Z,12.70
2022-12-05T06:00:07.976Z,14.33
2022-12-05T06:02:35.752Z,14.63
2022-12-05T06:05:02.908Z,15.15
2022-12-05T06:07:29.735Z,14.73
2022-12-05T06:09:57.172Z,15.23
2022-12-05T06:12:24.419Z,12.30
2022-12-05T06:14:51.438Z,15.05
2022-12-05T06:17:18.508Z,12.73
2022-12-05T06:19:48.556Z,13.23
2022-12-05T06:22:15.317Z,15.27
2022-12-05T06:24:42.256Z,13.53
2022-12-05T06:27:09.061Z,13.80
2022-12-05T06:29:35.944Z,13.77
2022-12-05T06:32:02.866Z,13.88
2022-12-05T06:34:30.095Z,15.15
2022-12-05T06:36:56.821Z,13.10
2022-12-05T06:39:23.637Z,14.93
2022-12-05T06:41:50.402Z,14.02
2022-12-05T06:44:17.238Z,13.07
2022-12-05T06:46:44.075Z,12.57
2022-12-05T06:49:10.951Z,13.57
2022-12-05T06:51:37.732Z,13.02
2022-12-05T06:54:04.543Z,12.48
2022-12-05T06:56:31.448Z,15.25
2022-12-05T06:58:58.372Z,13.60
2022-12-05T07:01:42.326Z,13.03
2022-12-05T07:04:20.357Z,12.10
2022-12-05T07:06:51.513Z,11.32
2022-12-05T07:09:20.315Z,13.93
2022-12-05T07:11:49.667Z,17.87
2022-12-05T07:14:38.920Z,14.77
2022-12-05T07:17:04.800Z,13.35
2022-12-05T07:19:32.003Z,14.75
2022-12-05T07:21:58.932Z,13.20
2022-12-05T07:24:25.814Z,12.32
2022-12-05T07:26:52.613Z,16.50
2022-12-05T07:29:19.606Z,14.52
2022-12-05T07:31:46.543Z,13.52
2022-12-05T07:34:13.703Z,13.85
2022-12-05T07:36:40.470Z,13.95
2022-12-05T07:39:07.211Z,13.63
2022-12-05T07:41:35.097Z,13.65
2022-12-05T07:44:02.005Z,14.20
2022-12-05T07:46:29.514Z,13.60
2022-12-05T07:48:56.551Z,13.23
2022-12-05T07:51:23.982Z,16.30
2022-12-05T07:53:51.302Z,13.73
2022-12-05T07:56:18.533Z,14.90
2022-12-05T07:58:48.311Z,13.25
2022-12-05T08:01:18.045Z,12.07
2022-12-05T08:03:45.774Z,13.23
2022-12-05T08:06:15.345Z,13.60
2022-12-05T08:08:43.076Z,13.73
2022-12-05T08:11:14.229Z,14.85
2022-12-05T08:13:42.204Z,22.37
2022-12-05T08:16:18.031Z,24.73
2022-12-05T08:18:45.308Z,16.55
2022-12-05T08:21:15.538Z,14.85
2022-12-05T08:23:43.384Z,16.35
2022-12-05T08:26:14.127Z,14.82
2022-12-05T08:28:41.448Z,16.40
2022-12-05T08:31:15.401Z,14.85
2022-12-05T08:33:43.672Z,14.70
2022-12-05T08:36:13.309Z,14.13
2022-12-05T08:38:40.233Z,17.33
2022-12-05T08:41:09.965Z,15.60
2022-12-05T08:43:36.957Z,16.12
2022-12-05T08:46:04.312Z,16.25
2022-12-05T08:48:34.327Z,15.70
2022-12-05T08:51:06.042Z,14.77
2022-12-05T08:53:33.805Z,17.57
2022-12-05T08:56:05.465Z,12.20
2022-12-05T08:58:32.497Z,12.52
2022-12-05T09:01:18.121Z,14.57
2022-12-05T09:03:48.022Z,14.13
2022-12-05T09:06:20.598Z,11.43
2022-12-05T09:08:48.058Z,12.35
2022-12-05T09:11:20.038Z,12.93
2022-12-05T09:13:47.986Z,16.02
2022-12-05T09:16:21.269Z,10.52
2022-12-05T09:18:49.496Z,12.00
2022-12-05T09:21:22.019Z,12.25
2022-12-05T09:23:49.480Z,11.68
2022-12-05T09:26:19.209Z,12.98
2022-12-05T09:28:46.398Z,10.98
2022-12-05T09:31:15.921Z,12.00
2022-12-05T09:33:42.948Z,13.75
2022-12-05T09:36:14.088Z,12.93
2022-12-05T09:38:41.676Z,12.60
2022-12-05T09:41:43.544Z,11.45
2022-12-05T09:44:49.368Z,15.87
2022-12-05T09:47:31.354Z,12.55
2022-12-05T09:50:14.218Z,13.35
2022-12-05T09:53:21.681Z,18.98
2022-12-05T09:56:02.999Z,23.85
2022-12-05T09:58:44.081Z,12.57
2022-12-05T10:01:36.107Z,13.32
2022-12-05T10:04:08.776Z,12.40
2022-12-05T10:07:07.338Z,14.87
2022-12-05T10:10:01.636Z,15.07
2022-12-05T10:13:19.655Z,11.73
2022-12-05T10:15:57.055Z,11.70
2022-12-05T10:18:34.386Z,13.77
2022-12-05T10:21:15.784Z,12.30
2022-12-05T10:23:59.467Z,11.88
2022-12-05T10:26:40.864Z,11.97
2022-12-05T10:29:28.545Z,11.30
2022-12-05T10:32:21.427Z,12.57
2022-12-05T10:34:50.337Z,14.68
2022-12-05T10:37:22.243Z,12.02
2022-12-05T10:39:50.560Z,12.23
2022-12-05T10:42:29.395Z,14.50
2022-12-05T10:45:00.019Z,13.55
2022-12-05T10:47:27.434Z,12.93
2022-12-05T10:49:58.012Z,13.70
2022-12-05T10:52:25.307Z,12.27
2022-12-05T10:54:58.026Z,12.60
2022-12-05T10:57:27.766Z,12.70
2022-12-05T10:59:54.847Z,16.75
2022-12-05T11:02:24.840Z,14.35
2022-12-05T11:04:52.290Z,13.03
2022-12-05T11:07:48.680Z,14.07
2022-12-05T11:10:44.210Z,18.87
2022-12-05T11:13:24.958Z,12.63
2022-12-05T11:15:55.536Z,15.38
2022-12-05T11:18:34.422Z,17.47
2022-12-05T11:21:13.114Z,12.80
2022-12-05T11:23:40.560Z,13.57
2022-12-05T11:26:20.454Z,14.00
2022-12-05T11:28:47.365Z,13.57
2022-12-05T11:31:14.487Z,16.07
2022-12-05T11:33:41.716Z,12.23
2022-12-05T11:36:20.435Z,15.23
2022-12-05T11:38:48.087Z,13.38
2022-12-05T11:41:52.290Z,14.73
2022-12-05T11:44:59.088Z,15.03
2022-12-05T11:47:47.329Z,14.70
2022-12-05T11:50:23.037Z,13.30
2022-12-05T11:53:24.196Z,14.32
2022-12-05T11:56:09.750Z,14.40
2022-12-05T11:59:14.351Z,15.03
2022-12-05T12:02:04.556Z,14.95
2022-12-05T12:04:47.688Z,14.85
2022-12-05T12:07:17.367Z,14.70
2022-12-05T12:10:08.359Z,15.32
2022-12-05T12:12:54.655Z,13.97
2022-12-05T12:15:49.204Z,15.48
2022-12-05T12:18:37.280Z,14.57
2022-12-05T12:21:25.929Z,15.15
2022-12-05T12:24:04.422Z,12.23
2022-12-05T12:26:53.424Z,14.03
2022-12-05T12:29:44.963Z,14.43
2022-12-05T12:32:23.697Z,13.95
2022-12-05T12:35:13.902Z,15.05
2022-12-05T12:38:10.902Z,16.50
2022-12-05T12:40:40.274Z,15.93
2022-12-05T12:46:50.519Z,15.57
2022-12-05T12:49:45.694Z,14.98
2022-12-05T12:52:16.213Z,16.15
2022-12-05T12:55:03.807Z,16.53
2022-12-05T12:57:49.799Z,16.50
2022-12-05T13:00:28.808Z,14.55
2022-12-05T13:03:27.550Z,17.15
2022-12-05T13:06:29.936Z,16.00
2022-12-05T13:09:02.880Z,15.80
2022-12-05T13:11:36.743Z,15.05
2022-12-05T13:14:04.585Z,15.70
2022-12-05T13:16:41.161Z,14.43
2022-12-05T13:19:23.906Z,13.77
2022-12-05T13:21:52.365Z,14.70
2022-12-05T13:24:23.903Z,12.63
2022-12-05T13:26:50.998Z,14.05
2022-12-05T13:29:31.804Z,14.30
2022-12-05T13:32:00.655Z,16.62
2022-12-05T13:34:27.760Z,16.43
2022-12-05T13:37:14.643Z,14.45
2022-12-05T13:40:00.356Z,13.43
2022-12-05T13:42:32.025Z,13.52
2022-12-05T13:45:06.040Z,12.20
2022-12-05T13:47:40.454Z,16.50
2022-12-05T13:50:16.977Z,16.10
2022-12-05T13:52:59.187Z,13.82
2022-12-05T13:55:36.858Z,13.02
2022-12-05T13:58:24.000Z,11.98
2022-12-05T14:00:52.059Z,15.20
2022-12-05T14:03:21.906Z,15.88
2022-12-05T14:05:54.107Z,16.02
2022-12-05T14:08:35.951Z,15.48
2022-12-05T14:11:05.838Z,13.70
2022-12-05T14:13:33.744Z,12.97
2022-12-05T14:16:25.448Z,15.52
2022-12-05T14:19:34.923Z,14.38
2022-12-05T14:22:13.935Z,18.80
2022-12-05T14:25:23.215Z,17.67
2022-12-05T14:28:23.397Z,18.73
2022-12-05T14:31:00.560Z,14.87
2022-12-05T14:33:28.688Z,14.43
2022-12-05T14:35:55.623Z,16.05
2022-12-05T14:38:30.865Z,15.38
2022-12-05T14:41:12.988Z,15.50
2022-12-05T14:43:42.518Z,15.93
2022-12-05T14:46:32.692Z,16.25
2022-12-05T14:49:44.038Z,15.20
2022-12-05T14:52:21.415Z,16.12
2022-12-05T14:54:50.987Z,16.23
2022-12-05T14:57:19.364Z,15.82
2022-12-05T14:59:52.342Z,17.77
2022-12-05T15:02:27.145Z,48.87
2022-12-05T15:05:25.202Z,35.85
2022-12-05T15:07:53.991Z,32.13
2022-12-05T15:10:28.458Z,27.13
2022-12-05T15:12:59.543Z,19.90
2022-12-05T15:15:43.115Z,19.33
2022-12-05T15:18:31.670Z,21.35
2022-12-05T15:21:44.671Z,16.70
2022-12-05T15:24:17.125Z,16.92
2022-12-05T15:26:54.917Z,18.98
2022-12-05T15:29:25.558Z,17.85
2022-12-05T15:32:25.712Z,19.20
2022-12-05T15:35:14.172Z,19.40
2022-12-05T15:38:06.457Z,18.15
2022-12-05T15:40:38.428Z,15.15
2022-12-05T15:43:28.723Z,16.27
2022-12-05T15:46:17.509Z,16.87
2022-12-05T15:48:44.315Z,16.57
2022-12-05T15:51:11.556Z,20.65
2022-12-05T15:53:49.060Z,20.23
2022-12-05T15:56:28.056Z,24.12
2022-12-05T15:59:06.108Z,26.00
2022-12-05T16:01:41.487Z,20.27
2022-12-05T16:04:31.233Z,22.48
2022-12-05T16:07:03.436Z,35.08
2022-12-05T16:09:33.856Z,37.97
2022-12-05T16:12:04.092Z,28.55
2022-12-05T16:14:58.817Z,21.57
2022-12-05T16:17:24.204Z,20.37
2022-12-05T16:19:51.713Z,18.25
2022-12-05T16:22:24.541Z,19.90
2022-12-05T16:24:54.298Z,21.75
2022-12-05T16:27:35.803Z,18.40
2022-12-05T16:30:13.460Z,18.75
2022-12-05T16:32:42.056Z,17.60
2022-12-05T16:35:40.955Z,21.67
2022-12-05T16:38:16.746Z,16.98
2022-12-05T16:40:48.060Z,19.77
2022-12-05T16:43:34.509Z,20.65
2022-12-05T16:46:13.803Z,22.05
2022-12-05T16:48:47.451Z,22.25
2022-12-05T16:51:16.990Z,21.85
2022-12-05T16:53:46.873Z,21.27
2022-12-05T16:56:35.904Z,19.67
2022-12-05T16:59:07.241Z,20.77
2022-12-05T17:01:38.866Z,20.73
2022-12-05T17:04:06.249Z,30.75
2022-12-05T17:06:33.415Z,29.80
2022-12-05T17:09:00.493Z,33.95
2022-12-05T17:11:30.835Z,30.20
2022-12-05T17:13:58.865Z,28.25
2022-12-05T17:16:29.858Z,23.67
2022-12-05T17:18:56.912Z,23.80
2022-12-05T17:21:27.055Z,21.70
2022-12-05T17:23:54.183Z,23.25
2022-12-05T17:26:22.841Z,25.48
2022-12-05T17:28:50.418Z,22.52
2022-12-05T17:31:23.077Z,20.77
2022-12-05T17:33:52.265Z,24.15
2022-12-05T17:36:22.835Z,23.05
2022-12-05T17:38:49.984Z,25.20
2022-12-05T17:41:23.119Z,22.75
2022-12-05T17:43:52.946Z,21.13
2022-12-05T17:46:23.640Z,21.45
2022-12-05T17:48:51.761Z,20.88
2022-12-05T17:51:20.232Z,23.73
2022-12-05T17:53:48.104Z,20.00
2022-12-05T17:56:15.875Z,21.23
2022-12-05T17:58:42.984Z,20.60
2022-12-05T18:01:16.982Z,23.02
2022-12-05T18:03:44.208Z,17.37
2022-12-05T18:06:11.059Z,23.92
2022-12-05T18:08:39.921Z,21.17
2022-12-05T18:11:07.466Z,22.13
2022-12-05T18:13:34.512Z,21.42
2022-12-05T18:16:03.240Z,23.45
2022-12-05T18:18:30.513Z,22.83
2022-12-05T18:21:10.951Z,21.00
2022-12-05T18:23:38.976Z,26.30
2022-12-05T18:26:07.616Z,28.35
2022-12-05T18:28:37.686Z,29.55
2022-12-05T18:31:11.108Z,23.40
2022-12-05T18:33:39.531Z,24.43
2022-12-05T18:36:09.051Z,25.65
2022-12-05T18:38:37.682Z,29.10
2022-12-05T18:41:06.461Z,28.08
2022-12-05T18:43:36.818Z,27.60
2022-12-05T18:46:05.254Z,29.10
2022-12-05T18:48:44.836Z,28.40
2022-12-05T18:51:15.481Z,28.85
2022-12-05T18:53:43.188Z,31.52
2022-12-05T18:56:23.937Z,30.12
2022-12-05T18:58:59.753Z,28.20
2022-12-05T19:01:28.362Z,35.08
2022-12-05T19:03:59.836Z,31.12
2022-12-05T19:06:30.381Z,33.15
2022-12-05T19:09:03.710Z,37.38
2022-12-05T19:11:31.983Z,34.50
2022-12-05T19:14:01.623Z,33.38
2022-12-05T19:16:31.761Z,35.15
2022-12-05T19:19:01.518Z,35.58
2022-12-05T19:21:30.696Z,33.90
2022-12-05T19:23:58.395Z,29.63
2022-12-05T19:26:26.952Z,33.47
2022-12-05T19:28:53.915Z,34.40
2022-12-05T19:31:24.072Z,30.20
2022-12-05T19:33:54.172Z,35.88
2022-12-05T19:36:25.057Z,35.63
2022-12-05T19:38:54.054Z,33.60
2022-12-05T19:41:27.183Z,37.35
2022-12-05T19:43:55.463Z,33.15
2022-12-05T19:46:25.450Z,35.15
2022-12-05T19:48:56.710Z,35.73
2022-12-05T19:51:26.641Z,33.50
2022-12-05T19:53:54.820Z,35.00
2022-12-05T19:56:25.115Z,33.30
2022-12-05T19:58:54.122Z,31.95
2022-12-05T20:01:30.041Z,33.70
2022-12-05T20:04:02.778Z,34.92
2022-12-05T20:06:41.387Z,34.65
2022-12-05T20:09:10.121Z,33.85
2022-12-05T20:11:49.505Z,35.60
2022-12-05T20:14:21.067Z,35.43
2022-12-05T20:16:48.556Z,40.80
2022-12-05T20:19:16.234Z,39.35
2022-12-05T20:21:44.870Z,40.38
2022-12-05T20:24:12.505Z,51.83
2022-12-05T20:26:42.591Z,37.40
2022-12-05T20:29:10.479Z,38.28
2022-12-05T20:31:40.496Z,39.75
2022-12-05T20:34:10.909Z,35.72
2022-12-05T20:36:38.373Z,37.10
2022-12-05T20:39:08.222Z,38.17
2022-12-05T20:41:36.010Z,31.75
2022-12-05T20:44:06.140Z,38.85
2022-12-05T20:46:33.352Z,39.88
2022-12-05T20:49:01.277Z,31.98
2022-12-05T20:51:33.527Z,33.93
2022-12-05T20:54:02.410Z,35.50
2022-12-05T20:56:34.802Z,33.80
2022-12-05T20:59:05.406Z,37.63
2022-12-05T21:01:35.091Z,36.33
2022-12-05T21:04:04.923Z,34.40
2022-12-05T21:06:34.530Z,35.55
2022-12-05T21:09:02.878Z,38.88
2022-12-05T21:11:30.887Z,38.10
2022-12-05T21:14:05.123Z,34.78
2022-12-05T21:16:32.210Z,41.03
2022-12-05T21:18:59.939Z,35.78
2022-12-05T21:21:28.387Z,34.75
2022-12-05T21:23:57.593Z,36.17
2022-12-05T21:26:26.583Z,35.17
2022-12-05T21:28:53.996Z,34.93
2022-12-05T21:31:28.167Z,39.30
2022-12-05T21:33:57.891Z,33.85
2022-12-05T21:36:26.402Z,39.28
2022-12-05T21:38:56.251Z,37.38
2022-12-05T21:41:25.108Z,34.97
2022-12-05T21:43:55.382Z,35.72
2022-12-05T21:46:24.230Z,37.13
2022-12-05T21:48:51.381Z,33.50
2022-12-05T21:51:18.878Z,36.08
2022-12-05T21:53:45.698Z,41.03
2022-12-05T21:56:15.648Z,35.90
2022-12-05T21:58:44.268Z,32.35
2022-12-05T22:01:17.415Z,38.50
2022-12-05T22:03:45.097Z,40.85
2022-12-05T22:06:15.301Z,39.73
2022-12-05T22:08:42.910Z,34.75
2022-12-05T22:11:11.532Z,40.45
2022-12-05T22:13:38.741Z,45.15
2022-12-05T22:16:06.636Z,33.88
2022-12-05T22:18:33.938Z,41.97
2022-12-05T22:21:08.298Z,53.17
2022-12-05T22:23:35.676Z,60.42
2022-12-05T22:26:06.746Z,51.15
2022-12-05T22:28:34.836Z,38.40
2022-12-05T22:31:03.665Z,36.93
2022-12-05T22:33:31.715Z,33.40
2022-12-05T22:36:00.756Z,38.35
2022-12-05T22:38:30.711Z,32.85
2022-12-05T22:41:02.557Z,32.40
2022-12-05T22:43:31.614Z,36.70
2022-12-05T22:46:02.572Z,34.55
2022-12-05T22:48:29.542Z,33.90
2022-12-05T22:50:57.741Z,35.70
2022-12-05T22:53:25.173Z,33.50
2022-12-05T22:55:52.083Z,31.47
2022-12-05T22:58:19.604Z,32.40
2022-12-05T23:00:50.488Z,34.65
2022-12-05T23:03:17.296Z,31.25
2022-12-05T23:05:44.544Z,33.90
2022-12-05T23:08:12.205Z,30.87
2022-12-05T23:10:43.232Z,31.02
2022-12-05T23:13:12.436Z,32.40
2022-12-05T23:15:39.340Z,31.15
2022-12-05T23:18:06.299Z,34.50
2022-12-05T23:20:33.299Z,34.90
2022-12-05T23:23:00.051Z,34.05
2022-12-05T23:25:26.882Z,36.53
2022-12-05T23:27:53.735Z,35.30
2022-12-05T23:30:20.732Z,34.25
2022-12-05T23:32:47.517Z,31.43
2022-12-05T23:35:14.367Z,37.20
2022-12-05T23:37:41.227Z,34.75
2022-12-05T23:40:09.046Z,33.35
2022-12-05T23:42:35.915Z,34.53
2022-12-05T23:45:02.677Z,35.83
2022-12-05T23:47:29.547Z,33.08
2022-12-05T23:49:56.449Z,33.72
2022-12-05T23:52:23.339Z,33.97
2022-12-05T23:54:50.171Z,33.47
2022-12-05T23:57:17.895Z,34.83
2022-12-05T23:59:45.840Z,33.28
